Time;durP1;ratioP1;P1;durP2;ratioP2;P2;SDS_P1;SDS_P2;PMS_P1;PMS_P2;Temp;Humidity;BMP_temperature;BMP_pressure;BME280_temperature;BME280_humidity;BME280_pressure;Samples;Min_cycle;Max_cycle;Signal;HPM_P1;HPM_P2
2021/09/04 00:01:36;;;;;;;14.23;9.38;;;20.90;70.40;;;;;;10340004;28;20038;-52
2021/09/04 00:06:37;;;;;;;12.82;8.45;;;20.90;70.40;;;;;;10337786;28;20105;-52
2021/09/04 00:11:37;;;;;;;10.38;8.32;;;20.90;70.50;;;;;;10337936;28;20026;-53
2021/09/04 00:16:38;;;;;;;10.27;8.60;;;20.90;70.40;;;;;;10344999;28;20168;-51
2021/09/04 00:21:39;;;;;;;11.90;8.90;;;20.90;70.40;;;;;;10337895;28;20144;-54
2021/09/04 00:26:40;;;;;;;9.90;8.25;;;20.90;70.30;;;;;;10337027;28;20034;-52
2021/09/04 00:31:40;;;;;;;12.00;8.90;;;20.90;70.30;;;;;;10340375;28;20447;-51
2021/09/04 00:36:42;;;;;;;11.30;9.25;;;20.80;70.40;;;;;;10338437;28;20362;-52
2021/09/04 00:41:44;;;;;;;11.05;8.57;;;20.90;70.40;;;;;;10336580;28;20083;-51
2021/09/04 00:46:45;;;;;;;11.95;8.88;;;20.90;70.80;;;;;;10335359;28;20038;-50
2021/09/04 00:51:46;;;;;;;9.00;8.10;;;20.80;70.20;;;;;;10336236;28;20109;-51
2021/09/04 00:56:47;;;;;;;10.07;8.13;;;20.80;70.10;;;;;;10335824;28;20061;-51
2021/09/04 01:01:48;;;;;;;11.25;8.30;;;20.80;70.10;;;;;;10334933;28;20030;-54
2021/09/04 01:06:49;;;;;;;11.15;8.20;;;20.80;70.00;;;;;;10335269;28;20034;-54
2021/09/04 01:11:49;;;;;;;13.95;10.02;;;20.80;70.00;;;;;;10342022;28;20049;-51
2021/09/04 01:16:50;;;;;;;11.38;9.10;;;20.80;70.00;;;;;;10353838;28;20299;-49
2021/09/04 01:21:52;;;;;;;13.05;9.40;;;20.80;69.90;;;;;;10339040;28;20113;-52
2021/09/04 01:26:54;;;;;;;13.50;9.38;;;20.80;69.90;;;;;;10334682;28;20033;-54
2021/09/04 01:31:55;;;;;;;10.32;8.73;;;20.80;70.00;;;;;;10342470;28;20026;-53
2021/09/04 01:36:55;;;;;;;12.18;9.27;;;20.80;70.00;;;;;;10340670;28;20034;-52
2021/09/04 01:41:56;;;;;;;11.23;8.48;;;20.80;70.10;;;;;;10334321;28;20163;-52
2021/09/04 01:46:57;;;;;;;11.50;8.80;;;20.70;70.10;;;;;;10336643;28;20522;-53
2021/09/04 01:51:57;;;;;;;10.60;8.45;;;20.70;70.00;;;;;;10334043;28;20026;-51
2021/09/04 01:57:00;;;;;;;11.80;9.23;;;20.80;69.90;;;;;;10333702;28;20050;-51
2021/09/04 02:02:03;;;;;;;11.13;8.75;;;20.70;69.80;;;;;;10342640;28;20446;-51
2021/09/04 02:07:04;;;;;;;12.15;8.50;;;20.70;69.80;;;;;;10346855;28;20027;-52
2021/09/04 02:12:06;;;;;;;10.55;8.80;;;20.70;69.70;;;;;;10333464;28;20478;-52
2021/09/04 02:17:07;;;;;;;10.77;8.55;;;20.70;69.80;;;;;;10335275;28;20030;-53
2021/09/04 02:22:08;;;;;;;10.93;8.32;;;20.70;69.70;;;;;;10338364;28;20054;-50
2021/09/04 02:27:08;;;;;;;9.82;8.20;;;20.70;69.70;;;;;;10337082;28;20030;-50
2021/09/04 02:32:09;;;;;;;10.13;8.65;;;20.70;69.70;;;;;;10333143;28;20037;-53
2021/09/04 02:37:10;;;;;;;10.25;8.32;;;20.70;69.50;;;;;;10332797;28;20061;-49
2021/09/04 02:42:11;;;;;;;10.32;8.05;;;20.70;69.60;;;;;;10333123;28;20069;-54
2021/09/04 02:47:11;;;;;;;12.48;8.50;;;20.70;69.60;;;;;;10332200;28;20101;-53
2021/09/04 02:52:12;;;;;;;11.32;9.20;;;20.70;69.60;;;;;;10331470;28;20031;-53
2021/09/04 02:57:13;;;;;;;13.32;8.82;;;20.60;69.50;;;;;;10332684;28;20031;-53
2021/09/04 03:02:14;;;;;;;10.43;8.27;;;20.70;69.50;;;;;;10332357;28;20399;-53
2021/09/04 03:07:15;;;;;;;11.05;7.90;;;20.60;69.50;;;;;;10341975;28;20033;-53
2021/09/04 03:12:15;;;;;;;8.45;7.50;;;20.60;69.60;;;;;;10346899;28;20483;-50
2021/09/04 03:17:16;;;;;;;11.07;8.95;;;20.70;69.50;;;;;;10353181;28;20105;-53
2021/09/04 03:22:16;;;;;;;11.25;8.30;;;20.60;69.40;;;;;;10339723;28;20077;-53
2021/09/04 03:27:17;;;;;;;12.95;9.35;;;20.60;69.30;;;;;;10351436;28;20169;-52
2021/09/04 03:32:18;;;;;;;10.00;7.90;;;20.70;69.30;;;;;;10338066;28;20101;-52
2021/09/04 03:37:19;;;;;;;11.27;9.05;;;20.60;69.20;;;;;;10345725;28;20034;-52
2021/09/04 03:42:20;;;;;;;10.93;9.15;;;20.60;69.60;;;;;;10350159;28;20368;-49
2021/09/04 03:47:20;;;;;;;11.20;8.82;;;20.60;69.40;;;;;;10338707;28;20054;-52
2021/09/04 03:52:21;;;;;;;10.98;8.57;;;20.60;69.30;;;;;;10349822;28;20026;-53
2021/09/04 03:57:22;;;;;;;13.02;8.25;;;20.60;69.30;;;;;;10343068;28;20382;-52
2021/09/04 04:02:23;;;;;;;11.90;8.70;;;20.60;69.30;;;;;;10350974;28;20038;-48
2021/09/04 04:07:24;;;;;;;11.35;8.77;;;20.60;69.40;;;;;;10337754;28;20031;-53
2021/09/04 04:12:24;;;;;;;10.50;8.00;;;20.60;69.30;;;;;;10337877;28;20113;-54
2021/09/04 04:17:25;;;;;;;10.57;8.55;;;20.60;69.40;;;;;;10352049;28;20073;-53
2021/09/04 04:22:26;;;;;;;11.50;9.00;;;20.60;69.40;;;;;;10336274;28;20109;-54
2021/09/04 04:27:26;;;;;;;10.93;8.45;;;20.50;69.40;;;;;;10354265;28;20125;-52
2021/09/04 04:32:27;;;;;;;9.43;8.23;;;20.50;69.40;;;;;;10336863;28;20061;-50
2021/09/04 04:37:28;;;;;;;10.75;9.05;;;20.50;69.30;;;;;;10339145;28;20121;-52
2021/09/04 04:42:29;;;;;;;11.20;8.48;;;20.50;69.20;;;;;;10340625;28;20383;-52
2021/09/04 04:47:31;;;;;;;11.18;9.02;;;20.50;69.30;;;;;;10336162;28;20495;-51
2021/09/04 04:52:31;;;;;;;9.32;8.30;;;20.50;69.30;;;;;;10336549;28;20034;-52
2021/09/04 04:57:32;;;;;;;10.75;8.60;;;20.50;69.30;;;;;;10335500;28;20061;-52
2021/09/04 05:02:33;;;;;;;11.10;8.48;;;20.50;69.30;;;;;;10359917;28;20108;-50
2021/09/04 05:07:34;;;;;;;11.95;9.18;;;20.50;69.20;;;;;;10333295;28;20069;-53
2021/09/04 05:12:34;;;;;;;12.57;8.85;;;20.50;69.20;;;;;;10332478;28;20069;-53
2021/09/04 05:17:35;;;;;;;10.15;8.68;;;20.50;69.20;;;;;;10346597;28;20758;-50
2021/09/04 05:22:36;;;;;;;9.90;8.35;;;20.50;69.30;;;;;;10334978;28;20065;-51
2021/09/04 05:27:37;;;;;;;10.73;8.38;;;20.50;69.30;;;;;;10334795;28;20069;-53
2021/09/04 05:32:38;;;;;;;13.38;8.60;;;20.50;69.30;;;;;;10334572;28;20026;-53
2021/09/04 05:37:39;;;;;;;11.25;8.52;;;20.50;69.20;;;;;;10334375;28;20042;-54
2021/09/04 05:42:39;;;;;;;13.15;8.63;;;20.40;69.30;;;;;;10349173;28;20058;-52
2021/09/04 05:47:40;;;;;;;11.55;9.00;;;20.40;69.20;;;;;;10353784;28;20134;-50
2021/09/04 05:52:41;;;;;;;10.95;8.95;;;20.50;69.90;;;;;;10354497;28;20102;-52
2021/09/04 05:57:41;;;;;;;10.43;8.48;;;20.40;69.40;;;;;;10350751;28;20446;-53
2021/09/04 06:02:43;;;;;;;11.18;8.82;;;20.40;69.40;;;;;;10353071;28;20132;-52
2021/09/04 06:07:44;;;;;;;9.88;8.18;;;20.40;69.30;;;;;;10351702;28;20108;-54
2021/09/04 06:12:44;;;;;;;12.50;8.48;;;20.40;69.20;;;;;;10347413;28;20034;-51
2021/09/04 06:17:45;;;;;;;12.25;8.50;;;20.40;69.30;;;;;;10354138;28;20110;-54
2021/09/04 06:22:46;;;;;;;9.13;6.93;;;20.40;69.30;;;;;;10350636;28;20058;-53
2021/09/04 06:27:48;;;;;;;10.13;8.32;;;20.40;69.30;;;;;;10352373;28;20039;-52
2021/09/04 06:32:48;;;;;;;10.93;8.30;;;20.40;69.30;;;;;;10342707;28;20023;-54
2021/09/04 06:37:49;;;;;;;11.05;7.93;;;20.40;69.30;;;;;;10338944;28;20057;-52
2021/09/04 06:42:50;;;;;;;10.50;8.48;;;20.40;69.40;;;;;;10349919;28;20085;-51
2021/09/04 06:47:50;;;;;;;12.82;8.38;;;20.40;69.30;;;;;;10358981;28;20122;-51
2021/09/04 06:52:52;;;;;;;10.30;7.38;;;20.40;69.60;;;;;;10360041;28;20111;-52
2021/09/04 06:57:52;;;;;;;13.32;7.90;;;20.40;69.70;;;;;;10353439;28;20368;-52
2021/09/04 07:02:53;;;;;;;9.57;7.53;;;20.40;69.60;;;;;;10340270;28;20030;-53
2021/09/04 07:07:54;;;;;;;12.32;8.85;;;20.40;69.80;;;;;;10352581;28;20481;-51
2021/09/04 07:12:54;;;;;;;9.90;8.02;;;20.40;69.70;;;;;;10351965;28;20117;-55
2021/09/04 07:17:55;;;;;;;9.73;7.35;;;20.40;69.80;;;;;;10356846;28;20065;-48
2021/09/04 07:22:56;;;;;;;19.70;8.20;;;20.40;69.70;;;;;;10341027;28;20054;-52
2021/09/04 07:27:57;;;;;;;11.20;7.13;;;20.40;69.30;;;;;;10358022;28;20542;-53
2021/09/04 07:32:58;;;;;;;10.32;7.10;;;20.40;69.30;;;;;;10348535;28;20113;-50
2021/09/04 07:37:59;;;;;;;13.50;8.65;;;20.40;69.30;;;;;;10351983;28;20121;-52
2021/09/04 07:42:59;;;;;;;15.85;8.48;;;20.40;70.20;;;;;;10360069;28;20056;-54
2021/09/04 07:48:00;;;;;;;13.77;8.20;;;20.40;70.30;;;;;;10354677;28;20276;-54
2021/09/04 07:53:01;;;;;;;11.38;7.18;;;20.40;70.30;;;;;;10337989;28;20185;-53
2021/09/04 07:58:01;;;;;;;11.48;8.10;;;20.40;70.10;;;;;;10340988;28;20054;-54
2021/09/04 08:03:02;;;;;;;9.15;7.20;;;20.40;69.60;;;;;;10336458;28;20037;-52
2021/09/04 08:08:03;;;;;;;8.35;7.43;;;20.40;69.70;;;;;;10337507;28;20045;-54
2021/09/04 08:13:04;;;;;;;12.35;8.27;;;20.40;69.50;;;;;;10336119;28;20363;-54
2021/09/04 08:18:05;;;;;;;11.02;8.02;;;20.40;69.50;;;;;;10352350;28;20109;-54
2021/09/04 08:23:07;;;;;;;12.05;8.00;;;20.40;69.60;;;;;;10336710;28;20038;-54
2021/09/04 08:28:10;;;;;;;13.18;7.63;;;20.40;69.90;;;;;;10338601;28;20406;-54
2021/09/04 08:33:10;;;;;;;12.63;8.73;;;20.40;69.50;;;;;;10347650;28;20667;-50
2021/09/04 08:38:11;;;;;;;12.80;8.80;;;20.40;69.90;;;;;;10366390;28;20033;-55
2021/09/04 08:43:12;;;;;;;8.52;6.65;;;20.40;69.80;;;;;;10374814;28;20073;-56
2021/09/04 08:48:14;;;;;;;8.07;6.50;;;20.40;69.50;;;;;;10355363;28;20105;-54
2021/09/04 08:53:14;;;;;;;10.85;7.65;;;20.40;69.30;;;;;;10343493;28;20022;-53
2021/09/04 08:58:15;;;;;;;11.15;7.93;;;20.40;69.30;;;;;;10336148;28;20034;-54
2021/09/04 09:03:23;;;;;;;10.57;7.57;;;20.40;69.10;;;;;;10352737;28;20057;-54
2021/09/04 09:08:27;;;;;;;13.25;8.88;;;20.40;69.10;;;;;;10342855;28;20101;-54
2021/09/04 09:13:28;;;;;;;10.57;7.10;;;20.40;69.10;;;;;;10333573;28;20069;-54
2021/09/04 09:18:29;;;;;;;11.07;6.90;;;20.40;69.10;;;;;;10333885;28;20030;-53
2021/09/04 09:23:31;;;;;;;8.20;7.35;;;20.40;69.10;;;;;;10334212;28;20506;-54
2021/09/04 09:28:32;;;;;;;9.40;6.53;;;20.40;69.30;;;;;;10332509;28;20030;-54
2021/09/04 09:33:33;;;;;;;9.00;6.70;;;20.40;69.30;;;;;;10330495;28;20042;-53
2021/09/04 09:38:34;;;;;;;10.88;7.13;;;20.40;69.30;;;;;;10337485;28;20522;-54
2021/09/04 09:43:38;;;;;;;9.85;7.78;;;20.40;69.30;;;;;;10343221;28;20061;-54
2021/09/04 09:48:39;;;;;;;9.20;6.63;;;20.40;69.40;;;;;;10334160;28;20038;-51
2021/09/04 09:53:40;;;;;;;9.88;6.38;;;20.50;69.50;;;;;;10337322;28;20033;-55
2021/09/04 09:58:42;;;;;;;10.38;7.65;;;20.50;69.50;;;;;;10332878;28;20110;-53
2021/09/04 10:03:43;;;;;;;9.30;7.15;;;20.50;69.50;;;;;;10332558;28;20034;-54
2021/09/04 10:08:44;;;;;;;9.50;7.38;;;20.50;69.50;;;;;;10334703;28;20042;-55
2021/09/04 10:13:46;;;;;;;10.43;7.18;;;20.60;69.50;;;;;;10335036;28;20030;-54
2021/09/04 10:18:47;;;;;;;8.57;6.63;;;20.60;69.60;;;;;;10336597;28;20419;-54
2021/09/04 10:23:54;;;;;;;7.78;6.28;;;20.60;69.50;;;;;;10349686;28;20039;-54
2021/09/04 10:29:04;;;;;;;8.90;6.75;;;20.60;69.50;;;;;;10331735;28;20061;-54
2021/09/04 10:34:17;;;;;;;7.88;5.70;;;20.70;69.50;;;;;;10332509;28;20035;-54
2021/09/04 10:39:19;;;;;;;10.32;6.65;;;20.70;69.50;;;;;;10336571;28;20106;-54
2021/09/04 10:44:25;;;;;;;8.27;6.75;;;20.70;69.50;;;;;;10330935;28;20410;-53
2021/09/04 10:49:53;;;;;;;7.00;6.07;;;20.80;70.10;;;;;;10331429;28;20060;-55
2021/09/04 10:55:01;;;;;;;8.60;6.53;;;20.80;69.30;;;;;;10348038;28;20041;-55
2021/09/04 11:00:16;;;;;;;9.02;7.47;;;20.80;69.30;;;;;;10332348;28;20030;-53
2021/09/04 11:05:34;;;;;;;11.75;7.57;;;20.90;69.30;;;;;;10332150;28;20121;-55
2021/09/04 11:10:36;;;;;;;10.70;7.40;;;20.90;69.30;;;;;;10334685;28;20118;-55
2021/09/04 11:15:45;;;;;;;8.43;6.70;;;20.90;69.30;;;;;;10331209;28;20101;-55
2021/09/04 11:20:52;;;;;;;7.90;6.10;;;20.90;69.30;;;;;;10331014;28;20038;-54
2021/09/04 11:25:53;;;;;;;8.10;6.72;;;21.00;69.30;;;;;;10330660;28;20340;-53
2021/09/04 11:30:54;;;;;;;8.68;6.07;;;21.00;69.20;;;;;;10345972;28;20115;-55
2021/09/04 11:35:55;;;;;;;9.05;7.63;;;21.00;69.20;;;;;;10343240;28;20038;-53
2021/09/04 11:40:56;;;;;;;7.78;6.13;;;21.00;69.20;;;;;;10338754;28;20423;-54
2021/09/04 11:46:02;;;;;;;7.63;6.07;;;21.00;69.30;;;;;;10345703;28;20042;-54
2021/09/04 11:51:07;;;;;;;10.52;6.10;;;21.10;69.20;;;;;;10338881;28;20459;-52
2021/09/04 11:56:17;;;;;;;7.70;5.82;;;21.10;69.10;;;;;;10338022;28;20109;-54
2021/09/04 12:01:20;;;;;;;7.63;6.30;;;21.10;69.20;;;;;;10356699;28;20118;-54
2021/09/04 12:06:21;;;;;;;7.05;6.28;;;21.10;69.20;;;;;;10336357;28;20185;-54
2021/09/04 12:11:23;;;;;;;10.32;6.20;;;21.10;69.30;;;;;;10337492;28;20114;-54
2021/09/04 12:16:23;;;;;;;7.20;5.40;;;21.10;69.30;;;;;;10337301;28;20033;-53
2021/09/04 12:21:28;;;;;;;8.40;6.40;;;21.20;69.30;;;;;;10340658;28;20034;-54
2021/09/04 12:26:29;;;;;;;7.07;5.63;;;21.20;69.20;;;;;;10348812;28;20031;-55
2021/09/04 12:31:30;;;;;;;7.85;6.00;;;21.20;69.20;;;;;;10341675;28;20387;-54
2021/09/04 12:36:30;;;;;;;6.90;5.50;;;21.20;69.20;;;;;;10350867;28;20061;-52
2021/09/04 12:41:36;;;;;;;7.40;5.97;;;21.20;69.20;;;;;;10375845;28;20037;-52
2021/09/04 12:46:51;;;;;;;6.47;5.63;;;21.20;69.20;;;;;;10370509;28;20049;-53
2021/09/04 12:52:08;;;;;;;7.97;6.55;;;21.30;69.20;;;;;;10336520;28;20359;-53
2021/09/04 12:57:22;;;;;;;7.05;5.82;;;21.30;69.20;;;;;;10340509;28;20042;-54
2021/09/04 13:02:24;;;;;;;7.00;5.78;;;21.30;69.20;;;;;;10336154;28;20041;-54
2021/09/04 13:07:26;;;;;;;8.65;7.05;;;21.30;69.10;;;;;;10337997;28;20062;-54
2021/09/04 13:12:27;;;;;;;8.68;6.55;;;21.30;69.10;;;;;;10334503;28;20109;-52
2021/09/04 13:17:28;;;;;;;7.20;6.45;;;21.30;69.10;;;;;;10339364;28;20105;-55
2021/09/04 13:22:31;;;;;;;7.60;5.82;;;21.30;69.20;;;;;;10336615;28;20414;-54
2021/09/04 13:27:32;;;;;;;6.32;5.55;;;21.30;69.20;;;;;;10346205;28;20041;-55
2021/09/04 13:32:33;;;;;;;7.32;5.68;;;21.30;69.20;;;;;;10339663;28;20034;-54
2021/09/04 13:37:33;;;;;;;7.40;5.90;;;21.30;69.80;;;;;;10344449;28;20046;-53
2021/09/04 13:42:34;;;;;;;9.27;6.47;;;21.30;69.10;;;;;;10342423;28;20038;-53
2021/09/04 13:47:35;;;;;;;6.75;5.57;;;21.30;69.10;;;;;;10333864;28;20054;-53
2021/09/04 13:52:36;;;;;;;7.95;5.75;;;21.30;69.00;;;;;;10333637;28;20483;-52
2021/09/04 13:57:36;;;;;;;8.73;6.35;;;21.30;69.10;;;;;;10333652;28;20054;-52
2021/09/04 14:02:37;;;;;;;8.13;6.18;;;21.30;69.10;;;;;;10341082;28;20064;-54
2021/09/04 14:07:37;;;;;;;10.55;6.72;;;21.30;69.40;;;;;;10341933;28;20080;-55
2021/09/04 14:12:38;;;;;;;14.18;6.95;;;21.30;69.40;;;;;;10374031;28;20105;-54
2021/09/04 14:17:39;;;;;;;9.68;7.03;;;21.30;69.70;;;;;;10366038;28;20030;-54
2021/09/04 14:22:39;;;;;;;12.00;6.88;;;21.30;69.50;;;;;;10333582;28;20034;-53
2021/09/04 14:27:40;;;;;;;13.50;7.68;;;21.30;69.50;;;;;;10350618;28;20076;-54
2021/09/04 14:32:41;;;;;;;8.75;6.45;;;21.30;69.50;;;;;;10353717;28;20029;-53
2021/09/04 14:37:41;;;;;;;13.23;7.85;;;21.30;69.50;;;;;;10346408;28;20026;-54
2021/09/04 14:42:45;;;;;;;13.13;7.25;;;21.30;69.50;;;;;;10347678;28;20546;-54
2021/09/04 14:47:46;;;;;;;13.90;7.22;;;21.30;69.70;;;;;;10348340;28;20042;-54
2021/09/04 14:52:47;;;;;;;16.92;7.90;;;21.30;69.10;;;;;;10346179;28;20030;-53
2021/09/04 14:57:51;;;;;;;10.98;8.00;;;21.40;69.00;;;;;;10335560;28;20101;-54
2021/09/04 15:02:53;;;;;;;12.23;7.80;;;21.30;69.00;;;;;;10357056;28;20030;-54
2021/09/04 15:07:54;;;;;;;10.35;7.47;;;21.30;69.00;;;;;;10347902;28;20030;-53
2021/09/04 15:12:55;;;;;;;15.32;8.02;;;21.30;68.80;;;;;;10339926;28;20530;-54
2021/09/04 15:17:55;;;;;;;12.65;7.32;;;21.30;68.80;;;;;;10346921;28;20034;-55
2021/09/04 15:22:59;;;;;;;14.07;7.30;;;21.30;68.90;;;;;;10358687;28;20493;-54
2021/09/04 15:27:59;;;;;;;12.13;7.45;;;21.30;68.90;;;;;;10353771;28;20601;-55
2021/09/04 15:33:00;;;;;;;15.55;8.43;;;21.30;69.00;;;;;;10354889;28;20058;-52
2021/09/04 15:38:01;;;;;;;16.55;9.18;;;21.30;69.00;;;;;;10355676;28;20507;-54
2021/09/04 15:43:02;;;;;;;14.15;8.68;;;21.30;69.10;;;;;;10353873;28;20368;-54
2021/09/04 15:48:04;;;;;;;14.90;8.18;;;21.20;68.80;;;;;;10352975;28;20030;-55
2021/09/04 15:53:06;;;;;;;12.52;7.95;;;21.20;68.90;;;;;;10340775;28;20109;-54
2021/09/04 15:58:07;;;;;;;15.45;9.40;;;21.20;69.00;;;;;;10353968;28;20022;-53
2021/09/04 16:03:08;;;;;;;10.95;7.90;;;21.20;69.10;;;;;;10363512;28;20491;-55
2021/09/04 16:08:09;;;;;;;20.73;10.10;;;21.20;69.00;;;;;;10348007;28;20117;-54
2021/09/04 16:13:09;;;;;;;29.40;10.50;;;21.20;68.50;;;;;;10336460;28;20105;-54
2021/09/04 16:18:10;;;;;;;25.08;10.82;;;21.20;68.50;;;;;;10341214;28;20030;-53
2021/09/04 16:23:11;;;;;;;25.30;10.93;;;21.20;68.90;;;;;;10359009;28;20044;-52
2021/09/04 16:28:12;;;;;;;25.95;11.82;;;21.20;68.60;;;;;;10337533;28;20080;-54
2021/09/04 16:33:12;;;;;;;17.00;10.40;;;21.20;68.20;;;;;;10349110;28;20085;-53
2021/09/04 16:38:13;;;;;;;18.80;9.60;;;21.20;68.00;;;;;;10333555;28;20072;-53
2021/09/04 16:43:14;;;;;;;22.90;12.50;;;21.10;67.80;;;;;;10354081;28;20121;-54
2021/09/04 16:48:14;;;;;;;21.52;12.60;;;21.10;67.40;;;;;;10341067;28;20121;-54
2021/09/04 16:53:15;;;;;;;21.10;13.07;;;21.10;67.40;;;;;;10335740;28;20458;-55
2021/09/04 16:58:15;;;;;;;27.95;13.23;;;21.10;68.70;;;;;;10337853;28;20505;-53
2021/09/04 17:03:16;;;;;;;17.92;12.23;;;21.10;68.90;;;;;;10336709;28;20041;-54
2021/09/04 17:08:17;;;;;;;17.75;11.45;;;21.20;69.00;;;;;;10345958;28;20117;-56
2021/09/04 17:13:18;;;;;;;17.73;11.65;;;21.20;68.80;;;;;;10346309;28;20533;-55
2021/09/04 17:18:18;;;;;;;14.57;11.52;;;21.20;68.50;;;;;;10351569;28;20105;-56
2021/09/04 17:23:19;;;;;;;18.17;11.23;;;21.10;67.70;;;;;;10343422;28;20032;-54
2021/09/04 17:28:20;;;;;;;15.75;10.82;;;21.10;67.70;;;;;;10349228;28;20022;-55
2021/09/04 17:33:20;;;;;;;16.33;10.57;;;21.10;67.60;;;;;;10354005;28;20061;-56
2021/09/04 17:38:21;;;;;;;13.23;9.40;;;21.10;67.60;;;;;;10343813;28;20076;-53
2021/09/04 17:43:22;;;;;;;15.43;11.05;;;21.10;67.40;;;;;;10334220;28;20121;-54
2021/09/04 17:48:22;;;;;;;17.70;11.48;;;21.10;67.50;;;;;;10330714;28;20031;-55
2021/09/04 17:53:23;;;;;;;15.13;10.80;;;21.10;67.60;;;;;;10330157;28;20050;-55
2021/09/04 17:58:24;;;;;;;14.32;10.23;;;21.10;67.90;;;;;;10349790;28;20061;-55
2021/09/04 18:03:24;;;;;;;19.13;10.88;;;21.10;68.00;;;;;;10349035;28;20496;-55
2021/09/04 18:08:25;;;;;;;13.70;9.68;;;21.10;68.10;;;;;;10342589;28;20109;-54
2021/09/04 18:13:26;;;;;;;21.45;10.23;;;21.10;68.20;;;;;;10347182;28;20088;-55
2021/09/04 18:18:27;;;;;;;13.85;9.18;;;21.10;68.10;;;;;;10342589;28;20034;-56
2021/09/04 18:23:28;;;;;;;14.27;9.95;;;21.10;68.60;;;;;;10344464;28;20434;-55
2021/09/04 18:28:28;;;;;;;15.32;10.45;;;21.10;68.70;;;;;;10341630;28;20022;-55
2021/09/04 18:33:30;;;;;;;12.70;8.50;;;21.10;68.70;;;;;;10333879;28;20105;-55
2021/09/04 18:38:30;;;;;;;14.35;8.45;;;21.10;68.80;;;;;;10338318;28;20073;-55
2021/09/04 18:43:31;;;;;;;12.82;9.82;;;21.10;68.90;;;;;;10340332;28;20133;-56
2021/09/04 18:48:34;;;;;;;11.40;8.40;;;21.10;69.00;;;;;;10343812;28;20114;-54
2021/09/04 18:53:35;;;;;;;13.38;8.73;;;21.10;69.00;;;;;;10344805;28;20069;-56
2021/09/04 18:58:36;;;;;;;13.30;8.93;;;21.10;69.00;;;;;;10351845;28;20026;-54
2021/09/04 19:03:37;;;;;;;14.98;8.65;;;21.10;69.00;;;;;;10347142;28;20061;-55
2021/09/04 19:08:39;;;;;;;11.43;9.15;;;21.20;69.20;;;;;;10351447;28;20026;-54
2021/09/04 19:13:40;;;;;;;9.77;7.65;;;21.10;69.10;;;;;;10340230;28;20070;-55
2021/09/04 19:18:40;;;;;;;16.42;9.38;;;21.20;69.20;;;;;;10339134;28;20030;-55
2021/09/04 19:23:41;;;;;;;13.02;9.35;;;21.20;69.30;;;;;;10339694;28;20494;-52
2021/09/04 19:28:42;;;;;;;13.40;9.43;;;21.20;69.40;;;;;;10356469;28;20478;-55
2021/09/04 19:33:43;;;;;;;11.35;8.35;;;21.20;69.30;;;;;;10341462;28;20021;-54
2021/09/04 19:38:44;;;;;;;14.27;9.52;;;21.20;69.40;;;;;;10347145;28;20030;-54
2021/09/04 19:43:44;;;;;;;12.30;9.18;;;21.20;69.30;;;;;;10338708;28;20100;-55
2021/09/04 19:48:45;;;;;;;14.38;10.63;;;21.10;69.20;;;;;;10338888;28;20438;-54
2021/09/04 19:53:46;;;;;;;13.77;11.13;;;21.20;69.20;;;;;;10342112;28;20065;-53
2021/09/04 19:58:46;;;;;;;12.30;10.23;;;21.10;69.20;;;;;;10338518;28;20093;-55
2021/09/04 20:03:47;;;;;;;16.05;11.30;;;21.10;69.20;;;;;;10336707;28;20058;-52
2021/09/04 20:08:47;;;;;;;12.45;9.85;;;21.10;69.10;;;;;;10354851;28;20451;-55
2021/09/04 20:13:48;;;;;;;11.27;9.30;;;21.10;69.00;;;;;;10364105;28;20053;-55
2021/09/04 20:18:49;;;;;;;13.70;10.52;;;21.10;69.00;;;;;;10348102;28;20038;-55
2021/09/04 20:23:50;;;;;;;14.93;10.32;;;21.10;68.90;;;;;;10336163;28;20497;-55
2021/09/04 20:28:52;;;;;;;12.13;9.40;;;21.10;68.90;;;;;;10339580;28;20042;-54
2021/09/04 20:33:55;;;;;;;13.32;9.75;;;21.10;68.80;;;;;;10337223;28;20019;-55
2021/09/04 20:44:18;;;;;;;12.98;10.10;;;21.00;68.70;;;;;;10337254;28;20511;-54
2021/09/04 20:49:19;;;;;;;10.55;8.82;;;21.10;68.80;;;;;;10341488;28;20045;-54
2021/09/04 20:54:20;;;;;;;12.50;9.98;;;21.00;68.70;;;;;;10337905;28;20065;-56
2021/09/04 20:59:21;;;;;;;11.32;9.07;;;21.00;68.80;;;;;;10337146;28;20435;-54
2021/09/04 21:04:23;;;;;;;11.63;9.65;;;21.00;68.70;;;;;;10342687;28;20427;-54
2021/09/04 21:09:23;;;;;;;11.85;9.50;;;21.00;68.80;;;;;;10323206;28;20065;-55
2021/09/04 21:14:24;;;;;;;11.38;10.15;;;21.00;68.70;;;;;;10335967;28;20027;-55
2021/09/04 21:19:25;;;;;;;10.68;9.30;;;21.00;68.70;;;;;;10340425;28;20027;-55
2021/09/04 21:24:26;;;;;;;13.50;9.95;;;21.00;68.80;;;;;;10347360;28;20113;-55
2021/09/04 21:29:27;;;;;;;14.35;10.93;;;21.00;68.70;;;;;;10334839;28;20092;-55
2021/09/04 21:34:28;;;;;;;12.63;9.73;;;21.00;68.70;;;;;;10334824;28;20425;-54
2021/09/04 21:39:28;;;;;;;11.70;10.13;;;21.00;68.90;;;;;;10334788;28;20109;-55
2021/09/04 21:44:29;;;;;;;9.63;8.63;;;21.00;68.90;;;;;;10334585;28;20124;-54
2021/09/04 21:49:30;;;;;;;16.05;10.50;;;21.00;68.90;;;;;;10337302;28;20047;-57
2021/09/04 21:54:31;;;;;;;10.25;9.20;;;21.00;68.90;;;;;;10337305;28;20037;-53
2021/09/04 21:59:31;;;;;;;11.43;9.43;;;21.00;68.90;;;;;;10346665;28;20119;-55
2021/09/04 22:04:32;;;;;;;9.98;8.60;;;20.90;68.80;;;;;;10370675;28;20026;-55
2021/09/04 22:09:33;;;;;;;11.93;9.35;;;20.90;68.80;;;;;;10334592;28;20034;-54
2021/09/04 22:14:37;;;;;;;10.75;9.32;;;20.90;68.70;;;;;;10348662;28;20025;-55
2021/09/04 22:19:39;;;;;;;10.40;8.57;;;20.90;68.60;;;;;;10350921;28;20387;-55
2021/09/04 22:24:40;;;;;;;10.93;9.77;;;20.90;68.70;;;;;;10333510;28;20037;-54
2021/09/04 22:29:40;;;;;;;12.52;9.75;;;20.90;68.60;;;;;;10340080;28;20073;-55
2021/09/04 22:34:45;;;;;;;10.90;9.43;;;20.90;68.60;;;;;;10339154;28;20076;-55
2021/09/04 22:39:47;;;;;;;10.70;9.52;;;20.90;68.50;;;;;;10342511;28;20038;-55
2021/09/04 22:44:48;;;;;;;12.10;9.55;;;20.90;68.40;;;;;;10333696;28;20042;-54
2021/09/04 22:49:48;;;;;;;12.07;9.52;;;20.90;68.40;;;;;;10342810;28;20070;-55
2021/09/04 22:54:49;;;;;;;10.20;9.10;;;20.90;68.30;;;;;;10344407;28;20125;-54
2021/09/04 22:59:50;;;;;;;10.05;8.85;;;20.90;68.30;;;;;;10334618;28;20074;-54
2021/09/04 23:04:50;;;;;;;10.82;8.80;;;20.90;68.30;;;;;;10343222;28;20181;-55
2021/09/04 23:09:51;;;;;;;10.88;9.50;;;20.80;68.50;;;;;;10332425;28;20038;-55
2021/09/04 23:14:52;;;;;;;10.50;9.02;;;20.90;68.50;;;;;;10332656;28;20033;-54
2021/09/04 23:19:53;;;;;;;10.73;9.60;;;20.80;68.50;;;;;;10340195;28;20034;-53
2021/09/04 23:24:54;;;;;;;12.73;9.48;;;20.90;68.50;;;;;;10338885;28;20030;-55
2021/09/04 23:29:54;;;;;;;9.75;8.70;;;20.80;68.50;;;;;;10339544;28;20058;-55
2021/09/04 23:34:55;;;;;;;11.02;9.75;;;20.80;68.50;;;;;;10339592;28;20058;-54
2021/09/04 23:39:56;;;;;;;11.20;9.07;;;20.80;68.50;;;;;;10343079;28;20035;-55
2021/09/04 23:44:57;;;;;;;11.43;9.13;;;20.80;68.50;;;;;;10338913;28;20113;-55
2021/09/04 23:49:57;;;;;;;9.98;8.32;;;20.80;68.50;;;;;;10351899;28;20364;-55
2021/09/04 23:54:58;;;;;;;10.35;8.88;;;20.80;68.50;;;;;;10340345;28;20058;-55
2021/09/04 23:59:59;;;;;;;11.07;9.25;;;20.80;68.40;;;;;;10348691;28;20069;-53
